Bay Bridge — 3FCS5 — position and weather

sailwx.info

Track history (hours):
 
Tides and Currents Weather Stations Pressure Air Temp Water Temp Dewpoint Dewpoint Depression Visibility Wind Speed Wind Dir Waves Ship Positions

Bay Bridge

Last reported at 2015-Aug-22 06:21 UTC. Time now 2015-Aug-28 19:15 UTC.
Position N 29°55' E 122°04'.

Length 267 m; draft 12 m.

Type: Ship (hazmat cat A). MMSI: 354120000.

Date/timePositionNaut miles runAvg speedWind from/ knotsBaromVisibWave heightAir tempDewpointWater temp
2015-Aug-22 06:21N 29°55' E 122°04'1012.0
2015-Aug-22 05:32N 29°57' E 121°53'2 0.1
2015-Aug-21 09:09N 29°57' E 121°51'13 7.7
2015-Aug-21 07:28N 29°56' E 122°06'1412.7
2015-Aug-21 06:24N 29°46' E 122°17'1511.9
2015-Aug-21 05:10N 29°41' E 122°33'5 2.7
2015-Aug-21 03:29N 29°42' E 122°38'8514.1
2015-Aug-20 21:30N 31°06' E 122°24'1314.2
2015-Aug-20 20:33N 31°11' E 122°10'1515.1
2015-Aug-20 19:33N 31°16' E 121°53'1211.6
2015-Aug-20 18:33N 31°20' E 121°40'1 0.9
2015-Aug-20 17:31N 31°20' E 121°39'0 0.0
2015-Aug-20 16:31N 31°20' E 121°39'0 0.0
2015-Aug-20 15:31N 31°20' E 121°39'0 0.0
2015-Aug-20 14:31N 31°20' E 121°39'0 0.0
2015-Aug-20 13:31N 31°20' E 121°39'0 0.0
2015-Aug-20 12:25N 31°20' E 121°39'0 0.0
2015-Aug-20 11:31N 31°20' E 121°39'0 0.0
2015-Aug-20 10:31N 31°20' E 121°39'0 0.0
2015-Aug-20 09:30N 31°20' E 121°39'0 0.0
2015-Aug-20 08:30N 31°20' E 121°39'0 0.0
2015-Aug-20 07:31N 31°20' E 121°39'0 0.0
2015-Aug-20 06:33N 31°20' E 121°39'0 0.0
2015-Aug-20 05:34N 31°20' E 121°39'0 0.0
2015-Aug-20 04:30N 31°20' E 121°39'0 0.0
2015-Aug-20 03:34N 31°20' E 121°39'0 0.0
2015-Aug-20 02:30N 31°20' E 121°39'0 0.0
2015-Aug-20 01:33N 31°20' E 121°39'0 0.0
2015-Aug-20 00:34N 31°20' E 121°39'0 0.0
2015-Aug-19 23:33N 31°20' E 121°39'0 0.0
2015-Aug-19 22:33N 31°20' E 121°39'0 0.0
2015-Aug-19 21:33N 31°20' E 121°39'0 0.0
2015-Aug-19 20:33N 31°20' E 121°39'0 0.0
2015-Aug-19 19:34N 31°20' E 121°39'0 0.1
2015-Aug-19 18:33N 31°20' E 121°39'7 6.6
2015-Aug-19 17:33N 31°18' E 121°47'1010.0
2015-Aug-19 16:33N 31°15' E 121°58'8 8.2
2015-Aug-19 15:33N 31°13' E 122°07'1010.3
2015-Aug-19 14:33N 31°07' E 122°17'10 9.8
2015-Aug-19 13:32N 31°07' E 122°29'9 9.1
2015-Aug-19 12:33N 31°07' E 122°39'6 1.3
2015-Aug-19 08:06N 31°11' E 122°44'0 0.0
2015-Aug-18 19:30N 31°11' E 122°44'31 1.6
2015-Aug-17 23:30N 30°42' E 122°56'1010.7
2015-Aug-17 22:33N 30°32' E 122°58'  
Track history (hours):
 
Tides and Currents Weather Stations Pressure Air Temp Water Temp Dewpoint Dewpoint Depression Visibility Wind Speed Wind Dir Waves Ship Positions

Bay Bridge

Last reported at 2015-Aug-22 06:21 UTC. Time now 2015-Aug-28 19:15 UTC.
Position N 29°55' E 122°04'.

Length 267 m; draft 12 m.

Type: Ship (hazmat cat A). MMSI: 354120000.

Date/timePositionNaut miles runAvg speedWind from/ knotsBaromVisibWave heightAir tempDewpointWater temp
2015-Aug-22 06:21N 29°55' E 122°04'1012.0
2015-Aug-22 05:32N 29°57' E 121°53'2 0.1
2015-Aug-21 09:09N 29°57' E 121°51'13 7.7
2015-Aug-21 07:28N 29°56' E 122°06'1412.7
2015-Aug-21 06:24N 29°46' E 122°17'1511.9
2015-Aug-21 05:10N 29°41' E 122°33'5 2.7
2015-Aug-21 03:29N 29°42' E 122°38'8514.1
2015-Aug-20 21:30N 31°06' E 122°24'1314.2
2015-Aug-20 20:33N 31°11' E 122°10'1515.1
2015-Aug-20 19:33N 31°16' E 121°53'1211.6
2015-Aug-20 18:33N 31°20' E 121°40'1 0.9
2015-Aug-20 17:31N 31°20' E 121°39'0 0.0
2015-Aug-20 16:31N 31°20' E 121°39'0 0.0
2015-Aug-20 15:31N 31°20' E 121°39'0 0.0
2015-Aug-20 14:31N 31°20' E 121°39'0 0.0
2015-Aug-20 13:31N 31°20' E 121°39'0 0.0
2015-Aug-20 12:25N 31°20' E 121°39'0 0.0
2015-Aug-20 11:31N 31°20' E 121°39'0 0.0
2015-Aug-20 10:31N 31°20' E 121°39'0 0.0
2015-Aug-20 09:30N 31°20' E 121°39'0 0.0
2015-Aug-20 08:30N 31°20' E 121°39'0 0.0
2015-Aug-20 07:31N 31°20' E 121°39'0 0.0
2015-Aug-20 06:33N 31°20' E 121°39'0 0.0
2015-Aug-20 05:34N 31°20' E 121°39'0 0.0
2015-Aug-20 04:30N 31°20' E 121°39'0 0.0
2015-Aug-20 03:34N 31°20' E 121°39'0 0.0
2015-Aug-20 02:30N 31°20' E 121°39'0 0.0
2015-Aug-20 01:33N 31°20' E 121°39'0 0.0
2015-Aug-20 00:34N 31°20' E 121°39'0 0.0
2015-Aug-19 23:33N 31°20' E 121°39'0 0.0
2015-Aug-19 22:33N 31°20' E 121°39'0 0.0
2015-Aug-19 21:33N 31°20' E 121°39'0 0.0
2015-Aug-19 20:33N 31°20' E 121°39'0 0.0
2015-Aug-19 19:34N 31°20' E 121°39'0 0.1
2015-Aug-19 18:33N 31°20' E 121°39'7 6.6
2015-Aug-19 17:33N 31°18' E 121°47'1010.0
2015-Aug-19 16:33N 31°15' E 121°58'8 8.2
2015-Aug-19 15:33N 31°13' E 122°07'1010.3
2015-Aug-19 14:33N 31°07' E 122°17'10 9.8
2015-Aug-19 13:32N 31°07' E 122°29'9 9.1
2015-Aug-19 12:33N 31°07' E 122°39'6 1.3
2015-Aug-19 08:06N 31°11' E 122°44'0 0.0
2015-Aug-18 19:30N 31°11' E 122°44'31 1.6
2015-Aug-17 23:30N 30°42' E 122°56'1010.7
2015-Aug-17 22:33N 30°32' E 122°58'  

Dump ship's entire track history